Time;durP1;ratioP1;P1;durP2;ratioP2;P2;SDS_P1;SDS_P2;PMS_P1;PMS_P2;Temp;Humidity;BMP_temperature;BMP_pressure;BME280_temperature;BME280_humidity;BME280_pressure;Samples;Min_cycle;Max_cycle;Signal;HPM_P1;HPM_P2
2023/09/26 00:01:55;;;;;;;13.25;9.27;;;;;;;;;;5054750;28;20058;-59
2023/09/26 00:04:22;;;;;;;10.65;8.77;;;;;;;;;;5057139;28;20049;-59
2023/09/26 00:06:49;;;;;;;10.38;8.15;;;;;;;;;;5063010;28;20057;-59
2023/09/26 00:09:15;;;;;;;11.63;9.55;;;;;;;;;;5062253;28;20055;-58
2023/09/26 00:11:42;;;;;;;10.30;8.52;;;;;;;;;;5061943;28;20462;-59
2023/09/26 00:14:08;;;;;;;11.98;8.95;;;;;;;;;;5062279;28;20068;-59
2023/09/26 00:16:35;;;;;;;11.35;9.45;;;;;;;;;;5081212;28;20052;-60
2023/09/26 00:19:02;;;;;;;11.65;8.77;;;;;;;;;;5063206;28;20045;-59
2023/09/26 00:21:29;;;;;;;9.77;8.55;;;;;;;;;;5061514;28;20080;-59
2023/09/26 00:23:56;;;;;;;11.07;8.88;;;;;;;;;;5060462;28;20053;-58
2023/09/26 00:26:22;;;;;;;11.02;9.50;;;;;;;;;;5062333;28;20511;-59
2023/09/26 00:28:49;;;;;;;13.52;8.93;;;;;;;;;;5061912;28;20099;-58
2023/09/26 00:31:16;;;;;;;11.10;9.18;;;;;;;;;;5062116;28;20137;-59
2023/09/26 00:33:43;;;;;;;9.38;8.43;;;;;;;;;;5059401;28;20053;-58
2023/09/26 00:36:12;;;;;;;12.50;9.60;;;;;;;;;;5062513;28;20519;-59
2023/09/26 00:38:39;;;;;;;16.25;10.20;;;;;;;;;;5061660;28;20057;-59
2023/09/26 00:41:06;;;;;;;12.15;9.50;;;;;;;;;;5063058;28;20102;-58
2023/09/26 00:43:33;;;;;;;13.00;9.23;;;;;;;;;;5048037;28;20081;-59
2023/09/26 00:46:00;;;;;;;11.10;8.95;;;;;;;;;;5060382;28;20053;-58
2023/09/26 00:48:27;;;;;;;11.82;10.15;;;;;;;;;;5061971;28;20705;-58
2023/09/26 00:50:54;;;;;;;18.38;11.18;;;;;;;;;;5054896;28;20058;-59
2023/09/26 00:53:21;;;;;;;14.88;11.60;;;;;;;;;;5058526;28;20056;-59
2023/09/26 00:55:48;;;;;;;12.02;10.77;;;;;;;;;;5061670;28;20076;-59
2023/09/26 00:58:16;;;;;;;15.30;11.25;;;;;;;;;;5062185;28;20107;-59
2023/09/26 01:00:43;;;;;;;13.77;11.13;;;;;;;;;;5043412;28;20155;-58
2023/09/26 01:03:10;;;;;;;14.02;11.25;;;;;;;;;;5063646;28;20085;-59
2023/09/26 01:05:37;;;;;;;17.33;11.30;;;;;;;;;;5054868;28;20144;-59
2023/09/26 01:08:04;;;;;;;13.23;11.25;;;;;;;;;;5050499;28;20502;-58
2023/09/26 01:10:31;;;;;;;14.18;11.07;;;;;;;;;;5057342;28;20049;-59
2023/09/26 01:12:57;;;;;;;17.33;11.60;;;;;;;;;;5061610;28;20064;-60
2023/09/26 01:15:37;;;;;;;13.15;11.23;;;;;;;;;;5059481;28;20333;-58
2023/09/26 01:18:10;;;;;;;14.27;11.48;;;;;;;;;;5066373;28;20060;-59
2023/09/26 01:20:37;;;;;;;12.93;11.05;;;;;;;;;;5065144;28;20472;-58
2023/09/26 01:23:06;;;;;;;14.77;10.73;;;;;;;;;;5059746;28;20049;-59
2023/09/26 01:25:33;;;;;;;14.52;11.82;;;;;;;;;;5059069;28;20057;-57
2023/09/26 01:28:05;;;;;;;16.63;10.82;;;;;;;;;;5064788;28;20223;-59
2023/09/26 01:30:37;;;;;;;14.52;10.57;;;;;;;;;;5065478;28;20057;-59
2023/09/26 01:33:05;;;;;;;11.93;9.63;;;;;;;;;;5061568;28;20107;-59
2023/09/26 01:35:31;;;;;;;16.88;11.43;;;;;;;;;;5059299;28;20056;-59
2023/09/26 01:37:58;;;;;;;16.02;11.85;;;;;;;;;;5064540;28;20151;-58
2023/09/26 01:40:24;;;;;;;12.27;10.98;;;;;;;;;;5063156;28;20057;-59
2023/09/26 01:42:51;;;;;;;15.02;11.25;;;;;;;;;;5061952;28;20110;-59
2023/09/26 01:45:18;;;;;;;16.45;11.45;;;;;;;;;;5052312;28;20107;-60
2023/09/26 01:47:48;;;;;;;14.48;11.02;;;;;;;;;;5065226;28;20057;-59
2023/09/26 01:50:15;;;;;;;16.50;11.55;;;;;;;;;;5064830;28;20146;-60
2023/09/26 01:52:42;;;;;;;12.43;11.13;;;;;;;;;;5066334;28;20064;-59
2023/09/26 01:55:19;;;;;;;12.35;11.05;;;;;;;;;;5054463;28;20490;-58
2023/09/26 01:57:46;;;;;;;13.95;11.18;;;;;;;;;;5064797;28;20136;-59
2023/09/26 02:00:13;;;;;;;14.98;11.65;;;;;;;;;;5048459;28;20053;-59
2023/09/26 02:02:43;;;;;;;13.15;11.40;;;;;;;;;;5051089;28;20104;-59
2023/09/26 02:05:11;;;;;;;13.70;11.45;;;;;;;;;;5053286;28;20141;-59
2023/09/26 02:07:37;;;;;;;16.63;11.27;;;;;;;;;;5063923;28;20538;-59
2023/09/26 02:10:05;;;;;;;12.05;10.73;;;;;;;;;;5065347;28;20061;-58
2023/09/26 02:12:32;;;;;;;14.13;11.88;;;;;;;;;;5050838;28;20187;-58
2023/09/26 02:15:01;;;;;;;13.93;11.75;;;;;;;;;;5053021;28;21000;-59
2023/09/26 02:17:28;;;;;;;13.15;10.50;;;;;;;;;;5064312;28;20053;-59
2023/09/26 02:19:54;;;;;;;15.70;11.82;;;;;;;;;;5063336;28;20053;-59
2023/09/26 02:22:21;;;;;;;16.25;11.70;;;;;;;;;;5063320;28;20132;-58
2023/09/26 02:24:51;;;;;;;12.73;11.15;;;;;;;;;;5063193;28;21085;-58
2023/09/26 02:27:17;;;;;;;14.98;10.90;;;;;;;;;;5064448;28;20049;-59
2023/09/26 02:29:47;;;;;;;12.48;11.13;;;;;;;;;;5053603;28;20140;-58
2023/09/26 02:32:13;;;;;;;13.80;10.55;;;;;;;;;;5044849;28;20057;-58
2023/09/26 02:34:39;;;;;;;15.75;11.82;;;;;;;;;;5063231;28;20135;-58
2023/09/26 02:37:06;;;;;;;14.52;12.13;;;;;;;;;;5059723;28;20145;-58
2023/09/26 02:39:33;;;;;;;13.57;11.13;;;;;;;;;;5046434;28;20155;-59
2023/09/26 02:42:00;;;;;;;16.80;10.13;;;;;;;;;;5064646;28;20045;-59
2023/09/26 02:44:26;;;;;;;16.52;11.70;;;;;;;;;;5063280;28;20535;-60
2023/09/26 02:46:53;;;;;;;12.43;11.13;;;;;;;;;;5063398;28;20080;-59
2023/09/26 02:49:19;;;;;;;17.50;11.90;;;;;;;;;;5063455;28;20057;-63
2023/09/26 02:51:45;;;;;;;14.60;11.95;;;;;;;;;;5064372;28;20136;-59
2023/09/26 02:54:12;;;;;;;15.60;11.57;;;;;;;;;;5061837;28;20563;-59
2023/09/26 02:56:38;;;;;;;13.73;10.93;;;;;;;;;;5057964;28;20053;-59
2023/09/26 02:59:05;;;;;;;15.63;11.88;;;;;;;;;;5063938;28;20192;-59
2023/09/26 03:01:31;;;;;;;14.90;11.10;;;;;;;;;;5064205;28;20055;-58
2023/09/26 03:03:58;;;;;;;17.65;12.23;;;;;;;;;;5060625;28;20080;-59
2023/09/26 03:06:24;;;;;;;16.05;11.50;;;;;;;;;;5059985;28;20057;-59
2023/09/26 03:08:51;;;;;;;12.73;10.88;;;;;;;;;;5063059;28;20064;-59
2023/09/26 03:11:17;;;;;;;14.07;11.35;;;;;;;;;;5060407;28;20053;-59
2023/09/26 03:13:44;;;;;;;13.15;11.18;;;;;;;;;;5063437;28;20140;-59
2023/09/26 03:16:13;;;;;;;15.27;11.57;;;;;;;;;;5062612;28;20061;-59
2023/09/26 03:18:40;;;;;;;16.40;10.75;;;;;;;;;;5062777;28;20136;-59
2023/09/26 03:21:06;;;;;;;12.18;10.88;;;;;;;;;;5061131;28;20053;-59
2023/09/26 03:23:33;;;;;;;12.75;10.32;;;;;;;;;;5067277;28;20060;-58
2023/09/26 03:25:59;;;;;;;16.13;11.35;;;;;;;;;;5057129;28;20546;-58
2023/09/26 03:28:26;;;;;;;11.13;9.82;;;;;;;;;;5055936;28;20785;-59
2023/09/26 03:30:52;;;;;;;13.70;10.90;;;;;;;;;;5062341;28;20080;-58
2023/09/26 03:33:19;;;;;;;12.48;9.85;;;;;;;;;;5063571;28;20103;-57
2023/09/26 03:35:45;;;;;;;11.68;10.35;;;;;;;;;;5063234;28;20068;-58
2023/09/26 03:38:12;;;;;;;12.50;11.18;;;;;;;;;;5057250;28;20053;-59
2023/09/26 03:40:38;;;;;;;12.38;10.50;;;;;;;;;;5060631;28;20114;-59
2023/09/26 03:43:04;;;;;;;12.68;11.23;;;;;;;;;;5063504;28;20055;-59
2023/09/26 03:45:31;;;;;;;12.05;10.18;;;;;;;;;;5063501;28;20480;-59
2023/09/26 03:47:58;;;;;;;12.90;11.20;;;;;;;;;;5063029;28;20215;-58
2023/09/26 03:50:25;;;;;;;11.07;9.70;;;;;;;;;;5063904;28;20053;-59
2023/09/26 03:52:51;;;;;;;13.98;11.00;;;;;;;;;;5060381;28;20045;-59
2023/09/26 03:55:18;;;;;;;13.32;10.27;;;;;;;;;;5063519;28;20554;-59
2023/09/26 03:57:44;;;;;;;12.23;10.07;;;;;;;;;;5062697;28;20057;-59
2023/09/26 04:00:16;;;;;;;12.13;10.77;;;;;;;;;;5060449;28;20470;-59
2023/09/26 04:02:43;;;;;;;13.65;11.23;;;;;;;;;;5048414;28;20064;-59
2023/09/26 04:05:10;;;;;;;11.80;9.60;;;;;;;;;;5060987;28;20144;-58
2023/09/26 04:07:36;;;;;;;14.15;10.40;;;;;;;;;;5055458;28;20045;-59
2023/09/26 04:10:05;;;;;;;12.00;10.55;;;;;;;;;;5060863;28;20091;-58
2023/09/26 04:12:32;;;;;;;11.32;9.98;;;;;;;;;;5063408;28;20060;-60
2023/09/26 04:14:58;;;;;;;12.63;9.52;;;;;;;;;;5062713;28;20057;-59
2023/09/26 04:17:27;;;;;;;12.18;9.82;;;;;;;;;;5065867;28;20573;-57
2023/09/26 04:19:54;;;;;;;13.13;9.57;;;;;;;;;;5050137;28;20057;-58
2023/09/26 04:22:20;;;;;;;13.23;9.70;;;;;;;;;;5061026;28;20499;-59
2023/09/26 04:24:47;;;;;;;12.07;9.88;;;;;;;;;;5061438;28;20096;-59
2023/09/26 04:27:13;;;;;;;11.60;10.07;;;;;;;;;;5060248;28;20524;-59
2023/09/26 04:29:40;;;;;;;13.32;10.35;;;;;;;;;;5062157;28;20057;-59
2023/09/26 04:32:07;;;;;;;17.33;10.15;;;;;;;;;;5058442;28;20437;-59
2023/09/26 04:34:33;;;;;;;12.20;10.60;;;;;;;;;;5050559;28;20095;-57
2023/09/26 04:37:00;;;;;;;10.80;9.48;;;;;;;;;;5060519;28;20100;-58
2023/09/26 04:39:27;;;;;;;12.25;10.48;;;;;;;;;;5061955;28;20136;-59
2023/09/26 04:41:54;;;;;;;10.73;9.63;;;;;;;;;;5061458;28;20207;-59
2023/09/26 04:44:20;;;;;;;11.20;10.00;;;;;;;;;;5064416;28;20541;-59
2023/09/26 04:46:47;;;;;;;10.55;9.32;;;;;;;;;;5062306;28;20049;-56
2023/09/26 04:49:13;;;;;;;13.63;10.65;;;;;;;;;;5049743;28;20053;-59
2023/09/26 04:51:40;;;;;;;14.10;11.15;;;;;;;;;;5062309;28;20495;-59
2023/09/26 04:54:06;;;;;;;12.82;11.50;;;;;;;;;;5069892;28;20045;-59
2023/09/26 04:56:35;;;;;;;14.95;11.30;;;;;;;;;;5060244;28;20410;-59
2023/09/26 04:59:01;;;;;;;13.95;11.35;;;;;;;;;;5062379;28;20140;-59
2023/09/26 05:01:28;;;;;;;15.02;12.13;;;;;;;;;;5054989;28;20068;-59
2023/09/26 05:03:55;;;;;;;13.25;11.05;;;;;;;;;;5061531;28;21013;-59
2023/09/26 05:06:22;;;;;;;16.13;12.10;;;;;;;;;;5060995;28;20061;-60
2023/09/26 05:08:50;;;;;;;13.30;11.90;;;;;;;;;;5061423;28;20514;-59
2023/09/26 05:11:16;;;;;;;17.27;12.02;;;;;;;;;;5061867;28;20060;-59
2023/09/26 05:13:43;;;;;;;15.38;11.48;;;;;;;;;;5061608;28;20563;-58
2023/09/26 05:16:10;;;;;;;14.45;12.05;;;;;;;;;;5061080;28;20252;-58
2023/09/26 05:18:36;;;;;;;13.00;10.65;;;;;;;;;;5061647;28;20191;-59
2023/09/26 05:21:06;;;;;;;12.65;10.38;;;;;;;;;;5062149;28;20080;-60
2023/09/26 05:23:33;;;;;;;14.10;10.80;;;;;;;;;;5061569;28;20121;-60
2023/09/26 05:26:04;;;;;;;23.25;10.75;;;;;;;;;;5060718;28;20061;-60
2023/09/26 05:28:30;;;;;;;17.73;10.60;;;;;;;;;;5059499;28;20495;-59
2023/09/26 05:30:57;;;;;;;15.32;11.38;;;;;;;;;;5061249;28;20116;-59
2023/09/26 05:33:24;;;;;;;14.65;10.90;;;;;;;;;;5061518;28;20060;-57
2023/09/26 05:35:53;;;;;;;15.07;11.15;;;;;;;;;;5061262;28;20057;-58
2023/09/26 05:38:20;;;;;;;16.67;11.60;;;;;;;;;;5061155;28;20053;-58
2023/09/26 05:40:47;;;;;;;12.93;9.32;;;;;;;;;;5058857;28;20049;-58
2023/09/26 05:43:13;;;;;;;12.63;11.23;;;;;;;;;;5067786;28;20072;-58
2023/09/26 05:45:39;;;;;;;12.18;10.93;;;;;;;;;;5063592;28;20056;-58
2023/09/26 05:48:06;;;;;;;13.77;10.82;;;;;;;;;;5068156;28;20644;-58
2023/09/26 05:50:33;;;;;;;13.52;11.25;;;;;;;;;;5076520;28;20052;-59
2023/09/26 05:52:59;;;;;;;12.32;10.45;;;;;;;;;;5075690;28;20068;-59
2023/09/26 05:55:26;;;;;;;13.98;11.18;;;;;;;;;;5064479;28;20533;-56
2023/09/26 05:57:53;;;;;;;13.50;10.60;;;;;;;;;;5063947;28;20053;-56
2023/09/26 06:00:19;;;;;;;12.10;10.68;;;;;;;;;;5063650;28;20053;-59
2023/09/26 06:02:46;;;;;;;17.25;10.48;;;;;;;;;;5063486;28;20053;-58
2023/09/26 06:05:12;;;;;;;13.95;10.13;;;;;;;;;;5063378;28;20517;-59
2023/09/26 06:07:42;;;;;;;10.90;9.77;;;;;;;;;;5057601;28;20496;-58
2023/09/26 06:10:12;;;;;;;13.20;10.13;;;;;;;;;;5063280;28;20053;-58
2023/09/26 06:12:38;;;;;;;15.30;10.57;;;;;;;;;;5063664;28;20057;-57
2023/09/26 06:15:05;;;;;;;16.08;10.13;;;;;;;;;;5063660;28;20099;-59
2023/09/26 06:17:32;;;;;;;13.95;11.02;;;;;;;;;;5063384;28;20057;-59
2023/09/26 06:19:59;;;;;;;13.05;10.10;;;;;;;;;;5075734;28;20049;-58
2023/09/26 06:22:25;;;;;;;14.23;9.60;;;;;;;;;;5050415;28;20183;-59
2023/09/26 06:24:52;;;;;;;14.18;10.73;;;;;;;;;;5048030;28;20414;-59
2023/09/26 06:27:19;;;;;;;13.32;10.00;;;;;;;;;;5063681;28;20057;-58
2023/09/26 06:29:45;;;;;;;13.05;10.35;;;;;;;;;;5072482;28;20052;-58
2023/09/26 06:32:12;;;;;;;21.25;10.40;;;;;;;;;;5068049;28;20053;-59
2023/09/26 06:34:40;;;;;;;13.48;10.07;;;;;;;;;;5068620;28;20060;-58
2023/09/26 06:37:06;;;;;;;14.65;10.48;;;;;;;;;;5065124;28;20049;-58
2023/09/26 06:39:33;;;;;;;12.45;9.98;;;;;;;;;;5071124;28;20136;-59
2023/09/26 06:42:00;;;;;;;13.30;10.15;;;;;;;;;;5073203;28;20084;-58
2023/09/26 06:44:28;;;;;;;13.13;9.57;;;;;;;;;;5063707;28;20154;-56
2023/09/26 06:46:55;;;;;;;11.75;10.27;;;;;;;;;;5057378;28;20049;-57
2023/09/26 06:49:22;;;;;;;14.73;9.38;;;;;;;;;;5076274;28;20053;-58
2023/09/26 06:51:48;;;;;;;14.30;10.93;;;;;;;;;;5065394;28;20459;-58
2023/09/26 06:54:15;;;;;;;14.00;10.20;;;;;;;;;;5063920;28;20057;-59
2023/09/26 06:56:41;;;;;;;11.88;10.18;;;;;;;;;;5066939;28;20060;-59
2023/09/26 06:59:08;;;;;;;18.83;10.65;;;;;;;;;;5063373;28;20053;-58
2023/09/26 07:01:35;;;;;;;13.57;10.13;;;;;;;;;;5069737;28;20052;-55
2023/09/26 07:04:02;;;;;;;16.75;10.98;;;;;;;;;;5063679;28;20118;-59
2023/09/26 07:06:30;;;;;;;17.65;11.23;;;;;;;;;;5062668;28;20049;-57
2023/09/26 07:08:57;;;;;;;17.23;11.00;;;;;;;;;;5063703;28;20385;-58
2023/09/26 07:11:24;;;;;;;16.48;11.02;;;;;;;;;;5063309;28;20057;-58
2023/09/26 07:13:50;;;;;;;13.80;10.60;;;;;;;;;;5066253;28;20132;-58
2023/09/26 07:16:17;;;;;;;16.48;10.73;;;;;;;;;;5073670;28;20056;-59
2023/09/26 07:18:43;;;;;;;16.38;10.85;;;;;;;;;;5068609;28;20056;-58
2023/09/26 07:21:10;;;;;;;17.90;11.68;;;;;;;;;;5063371;28;20104;-58
2023/09/26 07:23:37;;;;;;;16.85;10.90;;;;;;;;;;5062777;28;20064;-58
2023/09/26 07:26:14;;;;;;;16.40;11.98;;;;;;;;;;5075133;28;20140;-58
2023/09/26 07:28:43;;;;;;;13.48;10.88;;;;;;;;;;5064457;28;20520;-58
2023/09/26 07:31:11;;;;;;;14.45;10.80;;;;;;;;;;5064242;28;20142;-57
2023/09/26 07:33:38;;;;;;;13.10;11.35;;;;;;;;;;5069788;28;20553;-59
2023/09/26 07:36:05;;;;;;;13.93;10.70;;;;;;;;;;5062972;28;20524;-59
2023/09/26 07:38:35;;;;;;;13.98;11.07;;;;;;;;;;5067246;28;20657;-59
2023/09/26 07:41:03;;;;;;;14.88;10.85;;;;;;;;;;5063420;28;20076;-58
2023/09/26 07:43:32;;;;;;;12.23;10.15;;;;;;;;;;5061416;28;20048;-58
2023/09/26 07:46:05;;;;;;;14.15;10.93;;;;;;;;;;5060688;28;20128;-58
2023/09/26 07:48:32;;;;;;;14.50;10.60;;;;;;;;;;5067591;28;20052;-58
2023/09/26 07:50:59;;;;;;;14.77;10.48;;;;;;;;;;5079841;28;20507;-58
2023/09/26 07:53:25;;;;;;;17.67;10.77;;;;;;;;;;5066295;28;20099;-59
2023/09/26 07:55:56;;;;;;;15.95;11.02;;;;;;;;;;5062612;28;20057;-58
2023/09/26 07:58:23;;;;;;;13.25;10.18;;;;;;;;;;5062512;28;20053;-58
2023/09/26 08:00:49;;;;;;;18.63;11.20;;;;;;;;;;5049758;28;20973;-58
2023/09/26 08:03:16;;;;;;;16.25;12.48;;;;;;;;;;5062258;28;20127;-58
2023/09/26 08:05:43;;;;;;;15.95;11.30;;;;;;;;;;5061765;28;20049;-57
2023/09/26 08:08:09;;;;;;;16.42;11.48;;;;;;;;;;5061894;28;20055;-58
2023/09/26 08:10:38;;;;;;;13.02;9.80;;;;;;;;;;5062377;28;20515;-56
2023/09/26 08:13:07;;;;;;;12.23;10.20;;;;;;;;;;5067812;28;20236;-59
2023/09/26 08:15:34;;;;;;;14.23;10.02;;;;;;;;;;5062510;28;20145;-58
2023/09/26 08:18:02;;;;;;;13.98;9.77;;;;;;;;;;5063707;28;20053;-58
2023/09/26 08:20:29;;;;;;;15.63;10.98;;;;;;;;;;5061595;28;20187;-59
2023/09/26 08:22:56;;;;;;;15.10;10.27;;;;;;;;;;5061447;28;20052;-58
2023/09/26 08:25:22;;;;;;;13.90;10.68;;;;;;;;;;5082076;28;20240;-59
2023/09/26 08:27:48;;;;;;;12.10;9.65;;;;;;;;;;5052485;28;20053;-59
2023/09/26 08:30:15;;;;;;;12.45;9.77;;;;;;;;;;5062079;28;20057;-60
2023/09/26 08:32:42;;;;;;;14.55;10.73;;;;;;;;;;5061504;28;20041;-58
2023/09/26 08:35:09;;;;;;;13.63;10.68;;;;;;;;;;5073564;28;20305;-58
2023/09/26 08:37:38;;;;;;;15.32;10.18;;;;;;;;;;5063268;28;20533;-59
2023/09/26 08:40:05;;;;;;;15.23;9.63;;;;;;;;;;5063694;28;20147;-59
2023/09/26 08:42:36;;;;;;;14.35;9.77;;;;;;;;;;5063592;28;20555;-58
2023/09/26 08:45:04;;;;;;;12.77;9.75;;;;;;;;;;5062923;28;20053;-59
2023/09/26 08:47:30;;;;;;;12.95;9.90;;;;;;;;;;5069390;28;20057;-59
2023/09/26 08:49:57;;;;;;;10.75;9.65;;;;;;;;;;5063079;28;20522;-59
2023/09/26 08:52:24;;;;;;;12.90;9.38;;;;;;;;;;5059485;28;20523;-59
2023/09/26 08:54:50;;;;;;;12.10;9.82;;;;;;;;;;5066748;28;20148;-57
2023/09/26 08:57:18;;;;;;;12.63;10.40;;;;;;;;;;5060498;28;20510;-59
2023/09/26 08:59:46;;;;;;;13.25;9.45;;;;;;;;;;5061976;28;20503;-59
2023/09/26 09:02:12;;;;;;;14.85;11.18;;;;;;;;;;5066320;28;20057;-59
2023/09/26 09:04:43;;;;;;;12.55;9.90;;;;;;;;;;5060811;28;20603;-59
2023/09/26 09:07:10;;;;;;;12.75;8.95;;;;;;;;;;5054813;28;20593;-59
2023/09/26 09:09:37;;;;;;;15.93;11.52;;;;;;;;;;5061882;28;20085;-58
2023/09/26 09:12:21;;;;;;;10.40;8.80;;;;;;;;;;5072001;28;20052;-58
2023/09/26 09:14:47;;;;;;;16.30;9.43;;;;;;;;;;5061155;28;20053;-59
2023/09/26 09:17:14;;;;;;;11.25;9.27;;;;;;;;;;5060299;28;20061;-59
2023/09/26 09:19:47;;;;;;;13.68;9.45;;;;;;;;;;5060223;28;20053;-59
2023/09/26 09:22:17;;;;;;;14.40;9.65;;;;;;;;;;5062046;28;20061;-59
2023/09/26 09:24:51;;;;;;;10.75;9.65;;;;;;;;;;5063618;28;20073;-58
2023/09/26 09:27:27;;;;;;;10.20;8.53;;;;;;;;;;5064792;28;20431;-59
2023/09/26 09:30:07;;;;;;;15.48;10.40;;;;;;;;;;5064551;28;20569;-58
2023/09/26 09:32:39;;;;;;;14.77;9.85;;;;;;;;;;5064902;28;20081;-58
2023/09/26 09:35:08;;;;;;;14.07;9.32;;;;;;;;;;5065081;28;20636;-57
2023/09/26 09:37:34;;;;;;;14.68;8.80;;;;;;;;;;5063903;28;20053;-59
2023/09/26 09:40:01;;;;;;;16.40;9.65;;;;;;;;;;5064656;28;20044;-59
2023/09/26 09:42:27;;;;;;;15.35;9.55;;;;;;;;;;5063451;28;20064;-58
2023/09/26 09:44:54;;;;;;;14.48;8.73;;;;;;;;;;5058734;28;20060;-59
2023/09/26 09:47:22;;;;;;;10.57;8.65;;;;;;;;;;5062880;28;20150;-59
2023/09/26 09:49:50;;;;;;;11.13;8.98;;;;;;;;;;5063955;28;20479;-59
2023/09/26 09:52:19;;;;;;;11.13;8.10;;;;;;;;;;5064488;28;20139;-59
2023/09/26 09:54:46;;;;;;;10.70;8.95;;;;;;;;;;5061859;28;20503;-59
2023/09/26 09:57:17;;;;;;;10.80;8.90;;;;;;;;;;5055071;28;20084;-59
2023/09/26 09:59:47;;;;;;;12.25;9.27;;;;;;;;;;5059043;28;20131;-59
2023/09/26 10:02:15;;;;;;;14.88;10.00;;;;;;;;;;5062191;28;20057;-58
2023/09/26 10:04:43;;;;;;;12.82;8.77;;;;;;;;;;5058857;28;20861;-58
2023/09/26 10:07:13;;;;;;;11.15;8.45;;;;;;;;;;5063230;28;20084;-57
2023/09/26 10:09:40;;;;;;;9.85;8.10;;;;;;;;;;5063015;28;20052;-57
2023/09/26 10:12:08;;;;;;;9.60;8.15;;;;;;;;;;5075036;28;20052;-58
2023/09/26 10:14:34;;;;;;;9.20;7.57;;;;;;;;;;5066590;28;20436;-58
2023/09/26 10:17:02;;;;;;;8.95;7.40;;;;;;;;;;5062210;28;20175;-57
2023/09/26 10:19:29;;;;;;;10.23;7.63;;;;;;;;;;5063233;28;20527;-59
2023/09/26 10:22:19;;;;;;;9.45;7.60;;;;;;;;;;5063314;28;20048;-57
2023/09/26 10:24:47;;;;;;;11.10;7.72;;;;;;;;;;5061630;28;20053;-58
2023/09/26 10:27:21;;;;;;;10.48;6.10;;;;;;;;;;5063392;28;20521;-60
2023/09/26 10:30:10;;;;;;;13.10;6.97;;;;;;;;;;5064019;28;20084;-58
2023/09/26 10:32:41;;;;;;;8.70;6.07;;;;;;;;;;5060631;28;20428;-58
2023/09/26 10:35:29;;;;;;;11.30;6.22;;;;;;;;;;5053974;28;20508;-58
2023/09/26 10:38:23;;;;;;;10.30;6.25;;;;;;;;;;5062786;28;20052;-59
2023/09/26 10:40:51;;;;;;;7.32;6.07;;;;;;;;;;5053676;28;20106;-59
2023/09/26 10:43:17;;;;;;;8.43;6.65;;;;;;;;;;5072019;28;20057;-59
2023/09/26 10:46:04;;;;;;;11.65;6.38;;;;;;;;;;5052025;28;20142;-59
2023/09/26 10:48:30;;;;;;;11.07;6.05;;;;;;;;;;5062057;28;20130;-58
2023/09/26 10:50:58;;;;;;;7.43;5.75;;;;;;;;;;5063672;28;20049;-59
2023/09/26 10:53:25;;;;;;;8.35;6.03;;;;;;;;;;5064780;28;20044;-58
2023/09/26 10:55:51;;;;;;;7.40;6.10;;;;;;;;;;5064796;28;20053;-58
2023/09/26 10:58:20;;;;;;;5.93;5.32;;;;;;;;;;5071471;28;20087;-59
2023/09/26 11:00:50;;;;;;;9.85;5.55;;;;;;;;;;5063258;28;20060;-59
2023/09/26 11:03:17;;;;;;;7.32;5.43;;;;;;;;;;5058895;28;20057;-58
2023/09/26 11:05:44;;;;;;;6.93;4.78;;;;;;;;;;5063226;28;20061;-59
2023/09/26 11:08:11;;;;;;;5.07;3.90;;;;;;;;;;5060994;28;20055;-59
2023/09/26 11:10:58;;;;;;;5.32;4.15;;;;;;;;;;5063628;28;20053;-58
2023/09/26 11:13:25;;;;;;;6.25;4.10;;;;;;;;;;5083917;28;20083;-58
2023/09/26 11:15:52;;;;;;;8.35;4.15;;;;;;;;;;5058888;28;20110;-59
2023/09/26 11:18:19;;;;;;;6.03;3.75;;;;;;;;;;5050489;28;20115;-59
2023/09/26 11:20:45;;;;;;;12.52;4.22;;;;;;;;;;5058407;28;20075;-59
2023/09/26 11:23:33;;;;;;;6.72;4.28;;;;;;;;;;5063842;28;20059;-59
2023/09/26 11:26:03;;;;;;;11.88;4.78;;;;;;;;;;5063454;28;20052;-60
2023/09/26 11:28:30;;;;;;;5.68;4.80;;;;;;;;;;5061316;28;20148;-58
2023/09/26 11:30:57;;;;;;;6.70;4.53;;;;;;;;;;5062333;28;20085;-59
2023/09/26 11:33:23;;;;;;;7.43;4.47;;;;;;;;;;5062603;28;21481;-59
2023/09/26 11:35:50;;;;;;;6.43;4.22;;;;;;;;;;5062382;28;20140;-59
2023/09/26 11:38:17;;;;;;;6.13;4.05;;;;;;;;;;5062034;28;20499;-59
2023/09/26 11:40:44;;;;;;;5.95;3.83;;;;;;;;;;5062165;28;20494;-59
2023/09/26 11:43:10;;;;;;;6.93;3.97;;;;;;;;;;5062565;28;20486;-60
2023/09/26 11:45:37;;;;;;;6.07;4.07;;;;;;;;;;5062476;28;20052;-59
2023/09/26 11:48:05;;;;;;;5.90;3.88;;;;;;;;;;5062180;28;20049;-59
2023/09/26 11:50:34;;;;;;;5.18;3.97;;;;;;;;;;5061480;28;20060;-59
2023/09/26 11:53:02;;;;;;;4.78;3.95;;;;;;;;;;5060996;28;20059;-59
2023/09/26 11:55:31;;;;;;;5.47;3.60;;;;;;;;;;5062362;28;20064;-59
2023/09/26 11:57:58;;;;;;;7.50;4.22;;;;;;;;;;5062438;28;20156;-59
2023/09/26 12:00:26;;;;;;;5.45;4.07;;;;;;;;;;5061985;28;20200;-59
2023/09/26 12:02:53;;;;;;;5.55;4.22;;;;;;;;;;5062567;28;20269;-59
2023/09/26 12:05:23;;;;;;;4.28;3.42;;;;;;;;;;5060179;28;20048;-59
2023/09/26 12:07:50;;;;;;;5.10;3.83;;;;;;;;;;5057154;28;20385;-59
2023/09/26 12:10:16;;;;;;;7.07;3.97;;;;;;;;;;5057235;28;20068;-59
2023/09/26 12:12:43;;;;;;;6.35;4.05;;;;;;;;;;5067369;28;20546;-59
2023/09/26 12:15:26;;;;;;;4.47;3.60;;;;;;;;;;5062231;28;20148;-59
2023/09/26 12:17:53;;;;;;;6.72;4.05;;;;;;;;;;5070384;28;20057;-59
2023/09/26 12:20:21;;;;;;;5.78;4.05;;;;;;;;;;5055029;28;20454;-59
2023/09/26 12:22:52;;;;;;;5.72;3.70;;;;;;;;;;5059751;28;20665;-58
2023/09/26 12:25:19;;;;;;;6.97;3.65;;;;;;;;;;5060306;28;20088;-59
2023/09/26 12:27:47;;;;;;;8.60;3.95;;;;;;;;;;5052247;28;20056;-59
2023/09/26 12:30:13;;;;;;;5.95;4.00;;;;;;;;;;5062719;28;20428;-59
2023/09/26 12:32:40;;;;;;;6.47;3.90;;;;;;;;;;5062335;28;20061;-58
2023/09/26 12:35:07;;;;;;;4.32;3.25;;;;;;;;;;5060701;28;20057;-59
2023/09/26 12:37:35;;;;;;;6.05;3.90;;;;;;;;;;5061016;28;20466;-60
2023/09/26 12:40:08;;;;;;;4.47;3.50;;;;;;;;;;5062303;28;20574;-59
2023/09/26 12:42:35;;;;;;;5.75;3.20;;;;;;;;;;5061893;28;20085;-59
2023/09/26 12:45:02;;;;;;;7.68;3.55;;;;;;;;;;5061420;28;20114;-59
2023/09/26 12:47:28;;;;;;;6.35;4.18;;;;;;;;;;5061647;28;20440;-59
2023/09/26 12:49:55;;;;;;;4.65;4.18;;;;;;;;;;5061300;28;20059;-59
2023/09/26 12:52:26;;;;;;;6.35;4.22;;;;;;;;;;5065891;28;20052;-58
2023/09/26 12:54:53;;;;;;;5.60;3.40;;;;;;;;;;5061793;28;20137;-59
2023/09/26 12:57:20;;;;;;;4.97;3.53;;;;;;;;;;5059426;28;20519;-60
2023/09/26 12:59:48;;;;;;;5.00;3.70;;;;;;;;;;5060939;28;20049;-60
2023/09/26 13:02:17;;;;;;;5.97;3.53;;;;;;;;;;5060164;28;20589;-59
2023/09/26 13:04:43;;;;;;;7.80;4.07;;;;;;;;;;5061995;28;20053;-59
2023/09/26 13:07:10;;;;;;;6.70;4.40;;;;;;;;;;5060472;28;20167;-60
2023/09/26 13:09:36;;;;;;;11.45;4.07;;;;;;;;;;5060857;28;20060;-59
2023/09/26 13:12:03;;;;;;;7.97;4.90;;;;;;;;;;5061085;28;20056;-60
2023/09/26 13:14:30;;;;;;;9.88;4.43;;;;;;;;;;5060955;28;21071;-60
2023/09/26 13:16:56;;;;;;;6.32;4.25;;;;;;;;;;5059500;28;20514;-60
2023/09/26 13:19:24;;;;;;;7.07;4.70;;;;;;;;;;5053409;28;20118;-59
2023/09/26 13:21:53;;;;;;;4.32;3.78;;;;;;;;;;5060929;28;20060;-60
2023/09/26 13:24:20;;;;;;;5.65;3.80;;;;;;;;;;5060577;28;20578;-58
2023/09/26 13:26:47;;;;;;;5.78;3.88;;;;;;;;;;5060624;28;20053;-60
2023/09/26 13:29:13;;;;;;;8.55;3.97;;;;;;;;;;5060296;28;20065;-60
2023/09/26 13:31:42;;;;;;;8.38;4.05;;;;;;;;;;5059721;28;20500;-59
2023/09/26 13:34:09;;;;;;;4.05;3.20;;;;;;;;;;5060944;28;21569;-59
2023/09/26 13:36:35;;;;;;;5.28;3.80;;;;;;;;;;5058965;28;20111;-55
2023/09/26 13:39:02;;;;;;;4.30;3.38;;;;;;;;;;5077479;28;20180;-60
2023/09/26 13:41:30;;;;;;;10.38;4.43;;;;;;;;;;5061770;28;20141;-59
2023/09/26 13:43:56;;;;;;;7.05;3.40;;;;;;;;;;5060783;28;20053;-60
2023/09/26 13:46:23;;;;;;;5.88;4.20;;;;;;;;;;5056048;28;20512;-60
2023/09/26 13:48:50;;;;;;;5.35;3.70;;;;;;;;;;5059499;28;20123;-60
2023/09/26 13:51:16;;;;;;;5.90;3.83;;;;;;;;;;5060529;28;20072;-60
2023/09/26 13:53:43;;;;;;;8.57;4.57;;;;;;;;;;5059401;28;20058;-60
2023/09/26 13:56:09;;;;;;;6.85;4.18;;;;;;;;;;5057301;28;20088;-59
2023/09/26 13:58:35;;;;;;;9.32;4.50;;;;;;;;;;5055236;28;20059;-59
2023/09/26 14:01:03;;;;;;;7.00;5.00;;;;;;;;;;5058501;28;20072;-60
2023/09/26 14:03:31;;;;;;;6.40;4.60;;;;;;;;;;5060235;28;20053;-60
2023/09/26 14:05:58;;;;;;;6.43;4.40;;;;;;;;;;5065148;28;20489;-60
2023/09/26 14:08:24;;;;;;;6.63;4.25;;;;;;;;;;5064274;28;20053;-59
2023/09/26 14:10:51;;;;;;;7.65;4.57;;;;;;;;;;5066151;28;20128;-59
2023/09/26 14:13:22;;;;;;;5.93;3.75;;;;;;;;;;5068700;28;20059;-59
2023/09/26 14:15:48;;;;;;;6.90;4.90;;;;;;;;;;5063139;28;20061;-58
2023/09/26 14:18:15;;;;;;;8.90;3.70;;;;;;;;;;5063190;28;20059;-59
2023/09/26 14:20:41;;;;;;;5.80;4.38;;;;;;;;;;5062708;28;20059;-60
2023/09/26 14:23:08;;;;;;;7.18;4.43;;;;;;;;;;5062578;28;21043;-59
2023/09/26 14:25:34;;;;;;;7.35;4.25;;;;;;;;;;5063163;28;20060;-61
2023/09/26 14:28:03;;;;;;;5.68;4.40;;;;;;;;;;5063485;28;20495;-59
2023/09/26 14:30:30;;;;;;;11.15;4.97;;;;;;;;;;5063760;28;20523;-60